sensor_id;sensor_type;location;lat;lon;timestamp;P1;durP1;ratioP1;P2;durP2;ratioP2
51718;SDS011;37795;53.236;5.704;2023-07-31T00:01:24;8.50;;;3.43;;
51718;SDS011;37795;53.236;5.704;2023-07-31T00:03:49;5.40;;;3.23;;
51718;SDS011;37795;53.236;5.704;2023-07-31T00:06:15;4.60;;;2.83;;
51718;SDS011;37795;53.236;5.704;2023-07-31T00:08:41;7.03;;;4.07;;
51718;SDS011;37795;53.236;5.704;2023-07-31T00:11:06;5.53;;;3.37;;
51718;SDS011;37795;53.236;5.704;2023-07-31T00:13:32;8.17;;;4.30;;
51718;SDS011;37795;53.236;5.704;2023-07-31T00:15:58;9.73;;;3.43;;
51718;SDS011;37795;53.236;5.704;2023-07-31T00:18:24;4.20;;;2.83;;
51718;SDS011;37795;53.236;5.704;2023-07-31T00:20:49;5.80;;;3.22;;
51718;SDS011;37795;53.236;5.704;2023-07-31T00:23:15;9.40;;;4.33;;
51718;SDS011;37795;53.236;5.704;2023-07-31T00:25:41;9.30;;;3.83;;
51718;SDS011;37795;53.236;5.704;2023-07-31T00:28:07;4.13;;;3.13;;
51718;SDS011;37795;53.236;5.704;2023-07-31T00:30:32;5.63;;;3.00;;
51718;SDS011;37795;53.236;5.704;2023-07-31T00:32:58;4.95;;;2.47;;
51718;SDS011;37795;53.236;5.704;2023-07-31T00:35:24;9.43;;;4.20;;
51718;SDS011;37795;53.236;5.704;2023-07-31T00:37:50;8.87;;;3.47;;
51718;SDS011;37795;53.236;5.704;2023-07-31T00:40:15;6.77;;;2.93;;
51718;SDS011;37795;53.236;5.704;2023-07-31T00:42:41;16.13;;;4.13;;
51718;SDS011;37795;53.236;5.704;2023-07-31T00:45:07;3.83;;;2.73;;
51718;SDS011;37795;53.236;5.704;2023-07-31T00:47:33;7.90;;;3.30;;
51718;SDS011;37795;53.236;5.704;2023-07-31T00:49:58;10.10;;;3.20;;
51718;SDS011;37795;53.236;5.704;2023-07-31T00:52:24;6.20;;;3.07;;
51718;SDS011;37795;53.236;5.704;2023-07-31T00:54:50;6.50;;;2.93;;
51718;SDS011;37795;53.236;5.704;2023-07-31T00:57:16;8.80;;;3.40;;
51718;SDS011;37795;53.236;5.704;2023-07-31T00:59:41;8.07;;;3.13;;
51718;SDS011;37795;53.236;5.704;2023-07-31T01:02:07;8.50;;;3.43;;
51718;SDS011;37795;53.236;5.704;2023-07-31T01:04:33;5.95;;;3.92;;
51718;SDS011;37795;53.236;5.704;2023-07-31T01:07:22;4.68;;;3.08;;
51718;SDS011;37795;53.236;5.704;2023-07-31T01:10:03;6.53;;;3.30;;
51718;SDS011;37795;53.236;5.704;2023-07-31T01:12:35;6.22;;;3.13;;
51718;SDS011;37795;53.236;5.704;2023-07-31T01:17:28;10.90;;;3.60;;
51718;SDS011;37795;53.236;5.704;2023-07-31T01:19:55;5.65;;;3.67;;
51718;SDS011;37795;53.236;5.704;2023-07-31T01:22:33;12.98;;;3.63;;
51718;SDS011;37795;53.236;5.704;2023-07-31T01:27:59;9.60;;;4.10;;
51718;SDS011;37795;53.236;5.704;2023-07-31T01:30:29;7.63;;;4.28;;
51718;SDS011;37795;53.236;5.704;2023-07-31T01:33:02;9.45;;;3.90;;
51718;SDS011;37795;53.236;5.704;2023-07-31T01:35:36;9.80;;;3.55;;
51718;SDS011;37795;53.236;5.704;2023-07-31T01:38:03;5.32;;;3.30;;
51718;SDS011;37795;53.236;5.704;2023-07-31T01:40:30;8.40;;;3.60;;
51718;SDS011;37795;53.236;5.704;2023-07-31T01:42:55;8.33;;;4.23;;
51718;SDS011;37795;53.236;5.704;2023-07-31T01:45:21;9.27;;;3.97;;
51718;SDS011;37795;53.236;5.704;2023-07-31T01:47:47;9.40;;;3.10;;
51718;SDS011;37795;53.236;5.704;2023-07-31T01:50:12;7.77;;;3.80;;
51718;SDS011;37795;53.236;5.704;2023-07-31T01:52:38;7.40;;;3.27;;
51718;SDS011;37795;53.236;5.704;2023-07-31T01:55:04;5.73;;;2.80;;
51718;SDS011;37795;53.236;5.704;2023-07-31T01:57:29;7.63;;;3.58;;
51718;SDS011;37795;53.236;5.704;2023-07-31T01:59:55;5.43;;;3.75;;
51718;SDS011;37795;53.236;5.704;2023-07-31T02:02:21;7.93;;;3.80;;
51718;SDS011;37795;53.236;5.704;2023-07-31T02:04:48;8.45;;;2.88;;
51718;SDS011;37795;53.236;5.704;2023-07-31T02:07:14;9.27;;;3.20;;
51718;SDS011;37795;53.236;5.704;2023-07-31T02:09:39;8.02;;;3.35;;
51718;SDS011;37795;53.236;5.704;2023-07-31T02:12:05;3.83;;;3.03;;
51718;SDS011;37795;53.236;5.704;2023-07-31T02:14:33;14.55;;;4.20;;
51718;SDS011;37795;53.236;5.704;2023-07-31T02:16:59;4.63;;;3.10;;
51718;SDS011;37795;53.236;5.704;2023-07-31T02:19:25;5.18;;;2.83;;
51718;SDS011;37795;53.236;5.704;2023-07-31T02:21:51;4.70;;;3.00;;
51718;SDS011;37795;53.236;5.704;2023-07-31T02:24:17;3.85;;;2.78;;
51718;SDS011;37795;53.236;5.704;2023-07-31T02:26:42;9.80;;;3.57;;
51718;SDS011;37795;53.236;5.704;2023-07-31T02:29:08;11.57;;;3.73;;
51718;SDS011;37795;53.236;5.704;2023-07-31T02:31:34;5.22;;;2.88;;
51718;SDS011;37795;53.236;5.704;2023-07-31T02:34:00;11.00;;;3.60;;
51718;SDS011;37795;53.236;5.704;2023-07-31T02:36:25;6.33;;;3.53;;
51718;SDS011;37795;53.236;5.704;2023-07-31T02:38:51;6.90;;;3.77;;
51718;SDS011;37795;53.236;5.704;2023-07-31T02:41:17;6.90;;;2.97;;
51718;SDS011;37795;53.236;5.704;2023-07-31T02:43:42;7.60;;;3.00;;
51718;SDS011;37795;53.236;5.704;2023-07-31T02:46:08;8.97;;;3.20;;
51718;SDS011;37795;53.236;5.704;2023-07-31T02:48:34;5.22;;;2.95;;
51718;SDS011;37795;53.236;5.704;2023-07-31T02:51:00;4.77;;;3.07;;
51718;SDS011;37795;53.236;5.704;2023-07-31T02:53:25;6.40;;;3.42;;
51718;SDS011;37795;53.236;5.704;2023-07-31T02:55:51;7.63;;;3.33;;
51718;SDS011;37795;53.236;5.704;2023-07-31T02:58:17;5.87;;;3.47;;
51718;SDS011;37795;53.236;5.704;2023-07-31T03:00:43;4.77;;;2.97;;
51718;SDS011;37795;53.236;5.704;2023-07-31T03:03:09;4.47;;;2.65;;
51718;SDS011;37795;53.236;5.704;2023-07-31T03:05:34;3.08;;;2.25;;
51718;SDS011;37795;53.236;5.704;2023-07-31T03:08:00;5.47;;;2.30;;
51718;SDS011;37795;53.236;5.704;2023-07-31T03:10:26;11.27;;;2.70;;
51718;SDS011;37795;53.236;5.704;2023-07-31T03:12:52;5.70;;;2.77;;
51718;SDS011;37795;53.236;5.704;2023-07-31T03:15:18;4.20;;;2.10;;
51718;SDS011;37795;53.236;5.704;2023-07-31T03:17:43;2.95;;;1.52;;
51718;SDS011;37795;53.236;5.704;2023-07-31T03:20:09;3.17;;;1.33;;
51718;SDS011;37795;53.236;5.704;2023-07-31T03:22:35;5.20;;;1.88;;
51718;SDS011;37795;53.236;5.704;2023-07-31T03:25:02;1.63;;;1.40;;
51718;SDS011;37795;53.236;5.704;2023-07-31T03:27:28;3.22;;;1.58;;
51718;SDS011;37795;53.236;5.704;2023-07-31T03:29:53;1.10;;;1.00;;
51718;SDS011;37795;53.236;5.704;2023-07-31T03:32:19;2.47;;;1.60;;
51718;SDS011;37795;53.236;5.704;2023-07-31T03:34:45;1.75;;;1.27;;
51718;SDS011;37795;53.236;5.704;2023-07-31T03:37:11;1.80;;;1.17;;
51718;SDS011;37795;53.236;5.704;2023-07-31T03:39:36;1.55;;;1.25;;
51718;SDS011;37795;53.236;5.704;2023-07-31T03:42:02;1.20;;;1.00;;
51718;SDS011;37795;53.236;5.704;2023-07-31T03:44:28;2.00;;;1.30;;
51718;SDS011;37795;53.236;5.704;2023-07-31T03:46:54;1.60;;;0.73;;
51718;SDS011;37795;53.236;5.704;2023-07-31T03:49:19;0.80;;;0.80;;
51718;SDS011;37795;53.236;5.704;2023-07-31T03:51:45;1.08;;;1.00;;
51718;SDS011;37795;53.236;5.704;2023-07-31T03:54:11;1.87;;;1.33;;
51718;SDS011;37795;53.236;5.704;2023-07-31T03:56:38;1.30;;;1.20;;
51718;SDS011;37795;53.236;5.704;2023-07-31T03:59:04;1.40;;;1.20;;
51718;SDS011;37795;53.236;5.704;2023-07-31T04:01:30;1.52;;;1.42;;
51718;SDS011;37795;53.236;5.704;2023-07-31T04:03:55;2.53;;;1.40;;
51718;SDS011;37795;53.236;5.704;2023-07-31T04:06:21;5.60;;;2.30;;
51718;SDS011;37795;53.236;5.704;2023-07-31T04:08:47;6.57;;;2.97;;
51718;SDS011;37795;53.236;5.704;2023-07-31T04:11:12;7.63;;;4.33;;
51718;SDS011;37795;53.236;5.704;2023-07-31T04:13:38;7.97;;;5.10;;
51718;SDS011;37795;53.236;5.704;2023-07-31T04:16:04;15.82;;;6.10;;
51718;SDS011;37795;53.236;5.704;2023-07-31T04:18:30;10.95;;;6.18;;
51718;SDS011;37795;53.236;5.704;2023-07-31T04:20:57;11.25;;;6.35;;
51718;SDS011;37795;53.236;5.704;2023-07-31T04:23:23;8.85;;;5.47;;
51718;SDS011;37795;53.236;5.704;2023-07-31T04:25:50;17.33;;;7.65;;
51718;SDS011;37795;53.236;5.704;2023-07-31T04:28:16;15.30;;;6.65;;
51718;SDS011;37795;53.236;5.704;2023-07-31T04:30:41;8.63;;;6.13;;
51718;SDS011;37795;53.236;5.704;2023-07-31T04:33:07;9.23;;;6.77;;
51718;SDS011;37795;53.236;5.704;2023-07-31T04:35:33;13.10;;;6.33;;
51718;SDS011;37795;53.236;5.704;2023-07-31T04:37:58;12.50;;;7.43;;
51718;SDS011;37795;53.236;5.704;2023-07-31T04:40:24;11.80;;;7.50;;
51718;SDS011;37795;53.236;5.704;2023-07-31T04:42:50;16.85;;;7.68;;
51718;SDS011;37795;53.236;5.704;2023-07-31T04:45:16;15.82;;;6.80;;
51718;SDS011;37795;53.236;5.704;2023-07-31T04:47:42;11.32;;;7.82;;
51718;SDS011;37795;53.236;5.704;2023-07-31T04:50:07;13.97;;;6.53;;
51718;SDS011;37795;53.236;5.704;2023-07-31T04:52:33;9.85;;;5.88;;
51718;SDS011;37795;53.236;5.704;2023-07-31T04:54:59;11.07;;;5.73;;
51718;SDS011;37795;53.236;5.704;2023-07-31T04:57:25;11.53;;;5.83;;
51718;SDS011;37795;53.236;5.704;2023-07-31T04:59:50;12.87;;;6.50;;
51718;SDS011;37795;53.236;5.704;2023-07-31T05:02:16;19.77;;;9.37;;
51718;SDS011;37795;53.236;5.704;2023-07-31T05:04:42;17.60;;;8.17;;
51718;SDS011;37795;53.236;5.704;2023-07-31T05:07:07;19.67;;;8.40;;
51718;SDS011;37795;53.236;5.704;2023-07-31T05:09:33;18.10;;;8.10;;
51718;SDS011;37795;53.236;5.704;2023-07-31T05:11:59;13.82;;;8.10;;
51718;SDS011;37795;53.236;5.704;2023-07-31T05:14:25;13.87;;;8.33;;
51718;SDS011;37795;53.236;5.704;2023-07-31T05:16:51;21.85;;;9.80;;
51718;SDS011;37795;53.236;5.704;2023-07-31T05:19:17;21.30;;;10.15;;
51718;SDS011;37795;53.236;5.704;2023-07-31T05:21:43;21.17;;;10.02;;
51718;SDS011;37795;53.236;5.704;2023-07-31T05:24:09;30.13;;;11.07;;
51718;SDS011;37795;53.236;5.704;2023-07-31T05:26:35;28.10;;;10.43;;
51718;SDS011;37795;53.236;5.704;2023-07-31T05:29:01;18.33;;;9.80;;
51718;SDS011;37795;53.236;5.704;2023-07-31T05:31:27;14.93;;;9.37;;
51718;SDS011;37795;53.236;5.704;2023-07-31T05:33:53;15.27;;;8.07;;
51718;SDS011;37795;53.236;5.704;2023-07-31T05:36:18;11.70;;;7.77;;
51718;SDS011;37795;53.236;5.704;2023-07-31T05:38:44;15.53;;;8.23;;
51718;SDS011;37795;53.236;5.704;2023-07-31T05:41:13;10.70;;;7.72;;
51718;SDS011;37795;53.236;5.704;2023-07-31T05:43:39;13.27;;;7.72;;
51718;SDS011;37795;53.236;5.704;2023-07-31T05:46:04;14.63;;;7.27;;
51718;SDS011;37795;53.236;5.704;2023-07-31T05:48:32;15.90;;;8.55;;
51718;SDS011;37795;53.236;5.704;2023-07-31T05:50:59;14.10;;;6.97;;
51718;SDS011;37795;53.236;5.704;2023-07-31T05:53:25;10.70;;;6.88;;
51718;SDS011;37795;53.236;5.704;2023-07-31T05:55:50;15.10;;;8.60;;
51718;SDS011;37795;53.236;5.704;2023-07-31T05:58:16;15.70;;;7.27;;
51718;SDS011;37795;53.236;5.704;2023-07-31T06:00:42;10.73;;;6.97;;
51718;SDS011;37795;53.236;5.704;2023-07-31T06:03:07;14.57;;;7.00;;
51718;SDS011;37795;53.236;5.704;2023-07-31T06:05:33;16.10;;;6.73;;
51718;SDS011;37795;53.236;5.704;2023-07-31T06:07:59;9.35;;;6.30;;
51718;SDS011;37795;53.236;5.704;2023-07-31T06:10:25;5.60;;;4.57;;
51718;SDS011;37795;53.236;5.704;2023-07-31T06:12:50;8.40;;;4.97;;
51718;SDS011;37795;53.236;5.704;2023-07-31T06:15:16;7.73;;;4.00;;
51718;SDS011;37795;53.236;5.704;2023-07-31T06:17:44;8.38;;;3.97;;
51718;SDS011;37795;53.236;5.704;2023-07-31T06:20:10;9.07;;;4.68;;
51718;SDS011;37795;53.236;5.704;2023-07-31T06:22:35;5.07;;;4.18;;
51718;SDS011;37795;53.236;5.704;2023-07-31T06:25:01;9.40;;;4.85;;
51718;SDS011;37795;53.236;5.704;2023-07-31T06:27:27;8.57;;;4.60;;
51718;SDS011;37795;53.236;5.704;2023-07-31T06:29:53;11.98;;;6.05;;
51718;SDS011;37795;53.236;5.704;2023-07-31T06:32:19;5.33;;;4.23;;
51718;SDS011;37795;53.236;5.704;2023-07-31T06:34:45;9.07;;;4.50;;
51718;SDS011;37795;53.236;5.704;2023-07-31T06:37:10;8.30;;;4.63;;
51718;SDS011;37795;53.236;5.704;2023-07-31T06:39:36;15.50;;;6.73;;
51718;SDS011;37795;53.236;5.704;2023-07-31T06:42:02;12.02;;;6.25;;
51718;SDS011;37795;53.236;5.704;2023-07-31T06:44:29;9.60;;;5.82;;
51718;SDS011;37795;53.236;5.704;2023-07-31T06:46:54;5.80;;;5.18;;
51718;SDS011;37795;53.236;5.704;2023-07-31T06:55:16;5.43;;;3.90;;
51718;SDS011;37795;53.236;5.704;2023-07-31T06:57:43;6.90;;;4.00;;
51718;SDS011;37795;53.236;5.704;2023-07-31T07:00:10;8.15;;;4.55;;
51718;SDS011;37795;53.236;5.704;2023-07-31T07:02:36;5.47;;;3.67;;
51718;SDS011;37795;53.236;5.704;2023-07-31T07:05:01;9.13;;;4.50;;
51718;SDS011;37795;53.236;5.704;2023-07-31T07:07:27;7.82;;;4.47;;
51718;SDS011;37795;53.236;5.704;2023-07-31T07:09:53;6.07;;;4.32;;
51718;SDS011;37795;53.236;5.704;2023-07-31T07:12:19;5.20;;;3.53;;
51718;SDS011;37795;53.236;5.704;2023-07-31T07:14:44;7.43;;;3.97;;
51718;SDS011;37795;53.236;5.704;2023-07-31T07:17:12;7.25;;;3.72;;
51718;SDS011;37795;53.236;5.704;2023-07-31T07:19:41;4.90;;;3.40;;
51718;SDS011;37795;53.236;5.704;2023-07-31T07:22:07;6.30;;;3.22;;
51718;SDS011;37795;53.236;5.704;2023-07-31T07:24:33;3.65;;;2.75;;
51718;SDS011;37795;53.236;5.704;2023-07-31T07:26:58;4.43;;;3.00;;
51718;SDS011;37795;53.236;5.704;2023-07-31T07:29:24;3.00;;;2.07;;
51718;SDS011;37795;53.236;5.704;2023-07-31T07:31:50;3.17;;;2.60;;
51718;SDS011;37795;53.236;5.704;2023-07-31T07:34:16;5.38;;;2.80;;
51718;SDS011;37795;53.236;5.704;2023-07-31T07:36:41;3.60;;;2.15;;
51718;SDS011;37795;53.236;5.704;2023-07-31T07:39:08;2.83;;;2.07;;
51718;SDS011;37795;53.236;5.704;2023-07-31T07:41:35;2.25;;;1.63;;
51718;SDS011;37795;53.236;5.704;2023-07-31T07:44:01;4.57;;;1.97;;
51718;SDS011;37795;53.236;5.704;2023-07-31T07:46:26;2.43;;;1.80;;
51718;SDS011;37795;53.236;5.704;2023-07-31T07:48:52;1.45;;;1.17;;
51718;SDS011;37795;53.236;5.704;2023-07-31T07:51:18;2.25;;;1.30;;
51718;SDS011;37795;53.236;5.704;2023-07-31T07:53:44;2.70;;;1.88;;
51718;SDS011;37795;53.236;5.704;2023-07-31T07:56:09;3.03;;;2.13;;
51718;SDS011;37795;53.236;5.704;2023-07-31T07:58:35;3.33;;;1.77;;
51718;SDS011;37795;53.236;5.704;2023-07-31T08:01:01;6.27;;;2.03;;
51718;SDS011;37795;53.236;5.704;2023-07-31T08:03:26;4.33;;;2.13;;
51718;SDS011;37795;53.236;5.704;2023-07-31T08:05:52;5.50;;;2.70;;
51718;SDS011;37795;53.236;5.704;2023-07-31T08:08:22;3.75;;;1.85;;
51718;SDS011;37795;53.236;5.704;2023-07-31T08:10:48;4.47;;;2.17;;
51718;SDS011;37795;53.236;5.704;2023-07-31T08:13:13;7.83;;;2.23;;
51718;SDS011;37795;53.236;5.704;2023-07-31T08:15:41;4.27;;;2.20;;
51718;SDS011;37795;53.236;5.704;2023-07-31T08:18:07;3.45;;;2.03;;
51718;SDS011;37795;53.236;5.704;2023-07-31T08:20:33;3.13;;;1.73;;
51718;SDS011;37795;53.236;5.704;2023-07-31T08:22:58;4.57;;;1.37;;
51718;SDS011;37795;53.236;5.704;2023-07-31T08:25:24;5.33;;;3.33;;
51718;SDS011;37795;53.236;5.704;2023-07-31T08:27:50;4.95;;;1.77;;
51718;SDS011;37795;53.236;5.704;2023-07-31T08:30:18;4.00;;;1.88;;
51718;SDS011;37795;53.236;5.704;2023-07-31T08:35:09;5.78;;;1.85;;
51718;SDS011;37795;53.236;5.704;2023-07-31T08:37:37;3.80;;;2.08;;
51718;SDS011;37795;53.236;5.704;2023-07-31T08:40:03;5.75;;;2.60;;
51718;SDS011;37795;53.236;5.704;2023-07-31T08:42:30;3.90;;;2.05;;
51718;SDS011;37795;53.236;5.704;2023-07-31T08:44:56;8.07;;;2.28;;
51718;SDS011;37795;53.236;5.704;2023-07-31T08:47:22;2.67;;;1.63;;
51718;SDS011;37795;53.236;5.704;2023-07-31T08:49:49;3.95;;;2.10;;
51718;SDS011;37795;53.236;5.704;2023-07-31T08:52:16;5.03;;;2.30;;
51718;SDS011;37795;53.236;5.704;2023-07-31T08:54:42;3.38;;;1.90;;
51718;SDS011;37795;53.236;5.704;2023-07-31T08:57:07;7.70;;;2.97;;
51718;SDS011;37795;53.236;5.704;2023-07-31T08:59:34;3.38;;;1.98;;
51718;SDS011;37795;53.236;5.704;2023-07-31T09:02:03;3.40;;;1.48;;
51718;SDS011;37795;53.236;5.704;2023-07-31T09:04:32;3.35;;;1.85;;
51718;SDS011;37795;53.236;5.704;2023-07-31T09:07:02;2.47;;;1.80;;
51718;SDS011;37795;53.236;5.704;2023-07-31T09:09:30;4.47;;;1.50;;
51718;SDS011;37795;53.236;5.704;2023-07-31T09:11:57;3.15;;;1.50;;
51718;SDS011;37795;53.236;5.704;2023-07-31T09:14:24;4.18;;;1.90;;
51718;SDS011;37795;53.236;5.704;2023-07-31T09:16:51;2.92;;;1.90;;
51718;SDS011;37795;53.236;5.704;2023-07-31T09:19:35;2.17;;;1.23;;
51718;SDS011;37795;53.236;5.704;2023-07-31T09:22:07;3.08;;;1.52;;
51718;SDS011;37795;53.236;5.704;2023-07-31T09:24:33;2.45;;;1.55;;
51718;SDS011;37795;53.236;5.704;2023-07-31T09:27:00;1.50;;;1.02;;
51718;SDS011;37795;53.236;5.704;2023-07-31T09:29:27;1.52;;;1.23;;
51718;SDS011;37795;53.236;5.704;2023-07-31T09:31:54;2.47;;;1.63;;
51718;SDS011;37795;53.236;5.704;2023-07-31T09:34:28;2.17;;;1.25;;
51718;SDS011;37795;53.236;5.704;2023-07-31T09:36:57;1.88;;;1.00;;
51718;SDS011;37795;53.236;5.704;2023-07-31T09:39:26;2.25;;;0.70;;
51718;SDS011;37795;53.236;5.704;2023-07-31T09:41:55;1.23;;;1.13;;
51718;SDS011;37795;53.236;5.704;2023-07-31T09:44:21;3.33;;;1.33;;
51718;SDS011;37795;53.236;5.704;2023-07-31T09:47:02;0.73;;;0.73;;
51718;SDS011;37795;53.236;5.704;2023-07-31T09:49:27;1.65;;;0.82;;
51718;SDS011;37795;53.236;5.704;2023-07-31T09:51:54;0.95;;;0.88;;
51718;SDS011;37795;53.236;5.704;2023-07-31T09:54:20;2.43;;;1.10;;
51718;SDS011;37795;53.236;5.704;2023-07-31T09:56:46;2.45;;;1.48;;
51718;SDS011;37795;53.236;5.704;2023-07-31T09:59:18;4.93;;;1.90;;
51718;SDS011;37795;53.236;5.704;2023-07-31T10:01:45;4.35;;;2.00;;
51718;SDS011;37795;53.236;5.704;2023-07-31T10:04:12;4.25;;;2.25;;
51718;SDS011;37795;53.236;5.704;2023-07-31T10:06:39;8.57;;;2.42;;
51718;SDS011;37795;53.236;5.704;2023-07-31T10:09:08;6.45;;;2.30;;
51718;SDS011;37795;53.236;5.704;2023-07-31T10:11:43;3.63;;;2.28;;
51718;SDS011;37795;53.236;5.704;2023-07-31T10:14:18;4.80;;;1.73;;
51718;SDS011;37795;53.236;5.704;2023-07-31T10:16:45;3.92;;;2.30;;
51718;SDS011;37795;53.236;5.704;2023-07-31T10:19:11;2.72;;;2.10;;
51718;SDS011;37795;53.236;5.704;2023-07-31T10:21:37;3.47;;;2.10;;
51718;SDS011;37795;53.236;5.704;2023-07-31T10:24:03;3.78;;;1.85;;
51718;SDS011;37795;53.236;5.704;2023-07-31T10:26:30;5.95;;;2.40;;
51718;SDS011;37795;53.236;5.704;2023-07-31T10:28:58;3.45;;;2.70;;
51718;SDS011;37795;53.236;5.704;2023-07-31T10:31:24;6.03;;;3.00;;
51718;SDS011;37795;53.236;5.704;2023-07-31T10:33:52;6.28;;;3.35;;
51718;SDS011;37795;53.236;5.704;2023-07-31T10:36:19;11.85;;;3.45;;
51718;SDS011;37795;53.236;5.704;2023-07-31T10:38:46;6.22;;;3.28;;
51718;SDS011;37795;53.236;5.704;2023-07-31T10:41:14;4.75;;;3.03;;
51718;SDS011;37795;53.236;5.704;2023-07-31T10:43:40;6.07;;;2.63;;
51718;SDS011;37795;53.236;5.704;2023-07-31T10:46:06;7.25;;;2.70;;
51718;SDS011;37795;53.236;5.704;2023-07-31T10:55:24;5.28;;;2.47;;
51718;SDS011;37795;53.236;5.704;2023-07-31T10:57:57;9.30;;;2.60;;
51718;SDS011;37795;53.236;5.704;2023-07-31T11:00:31;6.68;;;2.80;;
51718;SDS011;37795;53.236;5.704;2023-07-31T11:08:17;8.35;;;3.42;;
51718;SDS011;37795;53.236;5.704;2023-07-31T11:10:46;7.65;;;2.90;;
51718;SDS011;37795;53.236;5.704;2023-07-31T11:13:13;6.72;;;3.55;;
51718;SDS011;37795;53.236;5.704;2023-07-31T11:15:38;6.22;;;2.40;;
51718;SDS011;37795;53.236;5.704;2023-07-31T11:18:04;7.55;;;2.90;;
51718;SDS011;37795;53.236;5.704;2023-07-31T11:20:34;3.80;;;2.75;;
51718;SDS011;37795;53.236;5.704;2023-07-31T11:23:02;3.53;;;2.40;;
51718;SDS011;37795;53.236;5.704;2023-07-31T11:25:30;3.50;;;1.98;;
51718;SDS011;37795;53.236;5.704;2023-07-31T11:30:32;6.15;;;2.25;;
51718;SDS011;37795;53.236;5.704;2023-07-31T11:35:26;3.30;;;2.42;;
51718;SDS011;37795;53.236;5.704;2023-07-31T11:37:52;3.28;;;2.17;;
51718;SDS011;37795;53.236;5.704;2023-07-31T11:40:18;3.45;;;2.30;;
51718;SDS011;37795;53.236;5.704;2023-07-31T11:42:44;2.38;;;1.60;;
51718;SDS011;37795;53.236;5.704;2023-07-31T11:45:10;3.40;;;2.22;;
51718;SDS011;37795;53.236;5.704;2023-07-31T11:47:36;3.40;;;2.55;;
51718;SDS011;37795;53.236;5.704;2023-07-31T11:50:03;3.28;;;2.28;;
51718;SDS011;37795;53.236;5.704;2023-07-31T11:52:31;6.72;;;2.80;;
51718;SDS011;37795;53.236;5.704;2023-07-31T11:55:02;6.78;;;3.13;;
51718;SDS011;37795;53.236;5.704;2023-07-31T11:57:29;5.35;;;3.38;;
51718;SDS011;37795;53.236;5.704;2023-07-31T11:59:55;7.55;;;3.80;;
51718;SDS011;37795;53.236;5.704;2023-07-31T12:02:22;10.23;;;4.03;;
51718;SDS011;37795;53.236;5.704;2023-07-31T12:04:48;11.15;;;3.80;;
51718;SDS011;37795;53.236;5.704;2023-07-31T12:07:14;8.45;;;3.58;;
51718;SDS011;37795;53.236;5.704;2023-07-31T12:09:55;8.73;;;3.90;;
51718;SDS011;37795;53.236;5.704;2023-07-31T12:12:22;8.80;;;3.45;;
51718;SDS011;37795;53.236;5.704;2023-07-31T12:14:48;8.30;;;4.22;;
51718;SDS011;37795;53.236;5.704;2023-07-31T12:17:16;8.52;;;3.92;;
51718;SDS011;37795;53.236;5.704;2023-07-31T12:19:43;12.10;;;4.35;;
51718;SDS011;37795;53.236;5.704;2023-07-31T12:22:16;8.60;;;3.70;;
51718;SDS011;37795;53.236;5.704;2023-07-31T12:24:42;6.40;;;4.38;;
51718;SDS011;37795;53.236;5.704;2023-07-31T12:27:12;6.15;;;4.45;;
51718;SDS011;37795;53.236;5.704;2023-07-31T12:29:40;7.53;;;4.63;;
51718;SDS011;37795;53.236;5.704;2023-07-31T12:32:41;9.85;;;4.03;;
51718;SDS011;37795;53.236;5.704;2023-07-31T12:35:00;12.30;;;4.43;;
51718;SDS011;37795;53.236;5.704;2023-07-31T12:39:52;10.95;;;4.70;;
51718;SDS011;37795;53.236;5.704;2023-07-31T12:42:19;8.73;;;4.50;;
51718;SDS011;37795;53.236;5.704;2023-07-31T12:44:45;10.43;;;4.38;;
51718;SDS011;37795;53.236;5.704;2023-07-31T12:47:10;12.68;;;4.97;;
51718;SDS011;37795;53.236;5.704;2023-07-31T12:49:36;7.20;;;4.43;;
51718;SDS011;37795;53.236;5.704;2023-07-31T12:52:02;8.60;;;4.03;;
51718;SDS011;37795;53.236;5.704;2023-07-31T12:54:28;9.60;;;4.70;;
51718;SDS011;37795;53.236;5.704;2023-07-31T12:56:53;7.33;;;4.00;;
51718;SDS011;37795;53.236;5.704;2023-07-31T12:59:19;15.68;;;4.80;;
51718;SDS011;37795;53.236;5.704;2023-07-31T13:01:45;11.18;;;6.18;;
51718;SDS011;37795;53.236;5.704;2023-07-31T13:04:10;8.83;;;4.53;;
51718;SDS011;37795;53.236;5.704;2023-07-31T13:06:36;6.63;;;4.20;;
51718;SDS011;37795;53.236;5.704;2023-07-31T13:09:02;9.15;;;4.65;;
51718;SDS011;37795;53.236;5.704;2023-07-31T13:11:27;9.35;;;3.58;;
51718;SDS011;37795;53.236;5.704;2023-07-31T13:13:53;6.57;;;4.23;;
51718;SDS011;37795;53.236;5.704;2023-07-31T13:16:19;11.73;;;4.32;;
51718;SDS011;37795;53.236;5.704;2023-07-31T13:18:44;7.82;;;4.60;;
51718;SDS011;37795;53.236;5.704;2023-07-31T13:21:10;7.63;;;4.53;;
51718;SDS011;37795;53.236;5.704;2023-07-31T13:23:36;8.48;;;5.03;;
51718;SDS011;37795;53.236;5.704;2023-07-31T13:26:01;6.47;;;4.03;;
51718;SDS011;37795;53.236;5.704;2023-07-31T13:28:27;6.67;;;4.53;;
51718;SDS011;37795;53.236;5.704;2023-07-31T13:30:53;7.57;;;3.75;;
51718;SDS011;37795;53.236;5.704;2023-07-31T13:33:18;10.07;;;5.28;;
51718;SDS011;37795;53.236;5.704;2023-07-31T13:35:44;7.55;;;4.47;;
51718;SDS011;37795;53.236;5.704;2023-07-31T13:38:10;13.50;;;3.90;;
51718;SDS011;37795;53.236;5.704;2023-07-31T13:40:36;10.10;;;4.20;;
51718;SDS011;37795;53.236;5.704;2023-07-31T13:43:01;12.65;;;4.15;;
51718;SDS011;37795;53.236;5.704;2023-07-31T13:45:27;10.68;;;4.35;;
51718;SDS011;37795;53.236;5.704;2023-07-31T13:47:53;10.98;;;4.15;;
51718;SDS011;37795;53.236;5.704;2023-07-31T13:50:19;6.25;;;4.00;;
51718;SDS011;37795;53.236;5.704;2023-07-31T13:52:46;7.22;;;4.57;;
51718;SDS011;37795;53.236;5.704;2023-07-31T13:55:11;12.20;;;4.95;;
51718;SDS011;37795;53.236;5.704;2023-07-31T13:57:37;5.70;;;3.72;;
51718;SDS011;37795;53.236;5.704;2023-07-31T14:00:03;13.68;;;6.57;;
51718;SDS011;37795;53.236;5.704;2023-07-31T14:04:55;11.27;;;5.50;;
51718;SDS011;37795;53.236;5.704;2023-07-31T14:07:21;13.82;;;5.35;;
51718;SDS011;37795;53.236;5.704;2023-07-31T14:09:46;10.73;;;4.50;;
51718;SDS011;37795;53.236;5.704;2023-07-31T14:12:12;14.05;;;6.65;;
51718;SDS011;37795;53.236;5.704;2023-07-31T14:14:38;11.00;;;5.07;;
51718;SDS011;37795;53.236;5.704;2023-07-31T14:17:03;11.07;;;5.35;;
51718;SDS011;37795;53.236;5.704;2023-07-31T14:19:29;12.25;;;5.18;;
51718;SDS011;37795;53.236;5.704;2023-07-31T14:21:58;9.45;;;5.00;;
51718;SDS011;37795;53.236;5.704;2023-07-31T14:24:24;9.30;;;5.50;;
51718;SDS011;37795;53.236;5.704;2023-07-31T14:26:50;14.18;;;6.60;;
51718;SDS011;37795;53.236;5.704;2023-07-31T14:29:15;12.55;;;4.95;;
51718;SDS011;37795;53.236;5.704;2023-07-31T14:31:41;13.10;;;6.10;;
51718;SDS011;37795;53.236;5.704;2023-07-31T14:34:07;17.10;;;6.00;;
51718;SDS011;37795;53.236;5.704;2023-07-31T14:36:32;14.55;;;5.65;;
51718;SDS011;37795;53.236;5.704;2023-07-31T14:38:58;10.70;;;5.60;;
51718;SDS011;37795;53.236;5.704;2023-07-31T14:41:24;12.65;;;5.60;;
51718;SDS011;37795;53.236;5.704;2023-07-31T14:43:50;9.02;;;5.00;;
51718;SDS011;37795;53.236;5.704;2023-07-31T14:46:15;9.43;;;5.20;;
51718;SDS011;37795;53.236;5.704;2023-07-31T14:48:41;13.63;;;5.47;;
51718;SDS011;37795;53.236;5.704;2023-07-31T14:51:07;10.03;;;4.57;;
51718;SDS011;37795;53.236;5.704;2023-07-31T14:53:32;13.05;;;4.82;;
51718;SDS011;37795;53.236;5.704;2023-07-31T14:55:58;10.10;;;5.30;;
51718;SDS011;37795;53.236;5.704;2023-07-31T14:58:24;11.68;;;4.68;;
51718;SDS011;37795;53.236;5.704;2023-07-31T15:00:49;13.57;;;6.10;;
51718;SDS011;37795;53.236;5.704;2023-07-31T15:03:15;8.27;;;4.25;;
51718;SDS011;37795;53.236;5.704;2023-07-31T15:05:41;12.88;;;5.50;;
51718;SDS011;37795;53.236;5.704;2023-07-31T15:08:07;21.63;;;5.10;;
51718;SDS011;37795;53.236;5.704;2023-07-31T15:10:32;9.90;;;5.07;;
51718;SDS011;37795;53.236;5.704;2023-07-31T15:12:58;11.65;;;4.80;;
51718;SDS011;37795;53.236;5.704;2023-07-31T15:15:24;13.68;;;5.63;;